Time;durP1;ratioP1;P1;durP2;ratioP2;P2;SDS_P1;SDS_P2;PMS_P1;PMS_P2;Temp;Humidity;BMP_temperature;BMP_pressure;BME280_temperature;BME280_humidity;BME280_pressure;Samples;Min_cycle;Max_cycle;Signal;HPM_P1;HPM_P2
2023/05/24 00:01:24;;;;;;;7.00;4.40;;;17.00;99.90;;;;;;5051388;28;20024;-75
2023/05/24 00:03:57;;;;;;;6.45;3.42;;;17.00;99.90;;;;;;5051805;28;20424;-74
2023/05/24 00:06:25;;;;;;;5.93;3.28;;;17.00;99.90;;;;;;5056828;28;20440;-75
2023/05/24 00:08:51;;;;;;;6.50;3.53;;;17.00;99.90;;;;;;5057133;28;20021;-75
2023/05/24 00:11:17;;;;;;;8.05;3.60;;;17.10;99.90;;;;;;5054187;28;20078;-75
2023/05/24 00:13:43;;;;;;;6.20;4.05;;;17.20;99.90;;;;;;5054976;28;20032;-75
2023/05/24 00:16:09;;;;;;;5.68;3.45;;;17.00;99.90;;;;;;5052369;28;20029;-75
2023/05/24 00:18:39;;;;;;;6.72;3.03;;;16.70;99.90;;;;;;5056010;28;20032;-75
2023/05/24 00:21:09;;;;;;;7.07;3.83;;;16.30;99.90;;;;;;5057469;28;20036;-75
2023/05/24 00:23:38;;;;;;;4.82;3.17;;;16.20;99.90;;;;;;5051588;28;20112;-75
2023/05/24 00:26:04;;;;;;;7.10;3.55;;;16.30;99.90;;;;;;5058402;28;20039;-75
2023/05/24 00:28:30;;;;;;;7.05;3.85;;;16.50;99.90;;;;;;5058328;28;20029;-75
2023/05/24 00:30:57;;;;;;;7.07;3.40;;;16.50;99.90;;;;;;5056090;28;20019;-75
2023/05/24 00:33:23;;;;;;;7.22;3.72;;;16.40;99.90;;;;;;5053794;28;20036;-75
2023/05/24 00:35:53;;;;;;;5.28;3.22;;;16.60;99.90;;;;;;5056442;28;20029;-75
2023/05/24 00:38:19;;;;;;;7.40;3.92;;;16.30;99.90;;;;;;5052146;28;20021;-74
2023/05/24 00:40:44;;;;;;;6.47;3.17;;;16.20;99.90;;;;;;5055815;28;20056;-75
2023/05/24 00:43:10;;;;;;;5.65;3.08;;;16.20;99.90;;;;;;5050165;28;20037;-75
2023/05/24 00:45:36;;;;;;;7.75;4.20;;;16.30;99.90;;;;;;5051809;28;20487;-75
2023/05/24 00:48:03;;;;;;;4.68;3.55;;;16.30;99.90;;;;;;5053505;28;20028;-75
2023/05/24 00:50:28;;;;;;;5.15;3.35;;;16.30;99.90;;;;;;5057513;28;20077;-75
2023/05/24 00:52:57;;;;;;;6.38;3.80;;;16.30;99.90;;;;;;5052293;28;20425;-75
2023/05/24 00:55:23;;;;;;;6.85;3.83;;;16.50;99.90;;;;;;5053460;28;20055;-75
2023/05/24 00:57:51;;;;;;;5.72;3.53;;;16.50;99.90;;;;;;5052261;28;20112;-75
2023/05/24 01:00:17;;;;;;;7.60;4.10;;;16.40;99.90;;;;;;5050838;28;20494;-75
2023/05/24 01:02:42;;;;;;;6.85;3.97;;;16.30;99.90;;;;;;5049868;28;20128;-75
2023/05/24 01:05:12;;;;;;;5.43;3.30;;;16.40;99.90;;;;;;5050111;28;20098;-75
2023/05/24 01:08:03;;;;;;;6.78;4.05;;;16.30;99.90;;;;;;5054905;28;20119;-75
2023/05/24 01:10:53;;;;;;;6.40;4.05;;;16.50;99.90;;;;;;5039807;28;20495;-75
2023/05/24 01:13:32;;;;;;;6.13;3.75;;;16.50;99.90;;;;;;5051364;28;20029;-75
2023/05/24 01:16:10;;;;;;;5.88;3.50;;;16.50;99.90;;;;;;5053986;28;20119;-75
2023/05/24 01:18:43;;;;;;;6.78;3.80;;;16.50;99.90;;;;;;5059977;28;20028;-75
2023/05/24 01:21:11;;;;;;;8.63;4.50;;;16.70;99.90;;;;;;5060478;28;20040;-75
2023/05/24 01:23:49;;;;;;;9.27;4.03;;;16.80;99.90;;;;;;5049884;28;20360;-75
2023/05/24 01:26:41;;;;;;;7.50;3.97;;;16.80;99.90;;;;;;5052866;28;20103;-75
2023/05/24 01:29:07;;;;;;;7.80;4.00;;;16.80;99.90;;;;;;5053318;28;20025;-75
2023/05/24 01:31:35;;;;;;;7.82;4.45;;;16.90;99.90;;;;;;5052608;28;20029;-75
2023/05/24 01:34:00;;;;;;;5.18;3.72;;;16.80;99.90;;;;;;5054583;28;20032;-75
2023/05/24 01:36:26;;;;;;;7.88;4.20;;;16.60;99.90;;;;;;5050552;28;20048;-75
2023/05/24 01:38:52;;;;;;;8.15;4.57;;;16.80;99.90;;;;;;5050736;28;20079;-76
2023/05/24 01:41:36;;;;;;;7.43;4.53;;;16.90;99.90;;;;;;5049712;28;20020;-75
2023/05/24 01:44:13;;;;;;;6.00;3.80;;;16.90;99.90;;;;;;5052826;28;20024;-75
2023/05/24 01:46:39;;;;;;;7.65;4.45;;;16.80;99.90;;;;;;5064716;28;20031;-75
2023/05/24 01:49:24;;;;;;;5.55;3.78;;;16.80;99.90;;;;;;5051480;28;20045;-75
2023/05/24 01:52:00;;;;;;;7.78;4.15;;;16.90;99.90;;;;;;5047909;28;20478;-75
2023/05/24 01:54:30;;;;;;;9.88;3.80;;;16.60;99.90;;;;;;5050401;28;20418;-76
2023/05/24 01:56:57;;;;;;;12.73;4.20;;;16.60;99.90;;;;;;5053989;28;20041;-75
2023/05/24 01:59:25;;;;;;;5.53;3.58;;;16.50;99.90;;;;;;5051295;28;20087;-75
2023/05/24 02:01:50;;;;;;;10.60;4.20;;;16.40;99.90;;;;;;5054361;28;20063;-75
2023/05/24 02:04:17;;;;;;;7.68;3.97;;;16.50;99.90;;;;;;5055153;28;20439;-75
2023/05/24 02:06:42;;;;;;;10.23;3.88;;;16.40;99.90;;;;;;5049276;28;20108;-76
2023/05/24 02:09:08;;;;;;;7.90;3.72;;;16.40;99.90;;;;;;5053257;28;20128;-75
2023/05/24 02:11:34;;;;;;;5.25;3.10;;;16.10;99.90;;;;;;5050509;28;20039;-75
2023/05/24 02:13:59;;;;;;;6.85;3.58;;;15.90;99.90;;;;;;5054657;28;20040;-75
2023/05/24 02:16:29;;;;;;;8.02;4.38;;;15.90;99.90;;;;;;5056987;28;20021;-75
2023/05/24 02:18:55;;;;;;;6.50;3.80;;;15.80;99.90;;;;;;5057776;28;20051;-75
2023/05/24 02:21:22;;;;;;;10.00;4.20;;;15.70;99.90;;;;;;5053046;28;20376;-76
2023/05/24 02:23:48;;;;;;;5.15;3.20;;;15.60;99.90;;;;;;5053161;28;20433;-76
2023/05/24 02:26:16;;;;;;;6.20;3.60;;;15.50;99.90;;;;;;5063436;28;20075;-76
2023/05/24 02:28:42;;;;;;;5.32;3.30;;;15.30;99.90;;;;;;5053756;28;20024;-75
2023/05/24 02:31:08;;;;;;;6.25;3.83;;;15.20;99.90;;;;;;5056710;28;20021;-75
2023/05/24 02:33:34;;;;;;;10.60;3.58;;;15.30;99.90;;;;;;5056222;28;20079;-75
2023/05/24 02:36:00;;;;;;;6.53;3.67;;;15.50;99.90;;;;;;5053156;28;20036;-75
2023/05/24 02:38:26;;;;;;;6.32;4.22;;;15.60;99.90;;;;;;5054968;28;20036;-75
2023/05/24 02:40:51;;;;;;;7.65;4.32;;;15.80;99.90;;;;;;5054547;28;20032;-75
2023/05/24 02:43:17;;;;;;;8.98;4.03;;;15.70;99.90;;;;;;5057402;28;20112;-75
2023/05/24 02:45:43;;;;;;;7.05;4.20;;;15.70;99.90;;;;;;5053394;28;20081;-75
2023/05/24 02:48:08;;;;;;;6.65;3.72;;;15.80;99.90;;;;;;5052437;28;20080;-75
2023/05/24 02:50:35;;;;;;;9.05;3.70;;;15.90;99.90;;;;;;5055988;28;20067;-76
2023/05/24 02:53:01;;;;;;;7.70;3.90;;;15.70;99.90;;;;;;5052052;28;20040;-76
2023/05/24 02:55:27;;;;;;;6.60;3.85;;;15.50;99.90;;;;;;5054578;28;20052;-76
2023/05/24 02:57:54;;;;;;;6.63;3.30;;;15.50;99.90;;;;;;5059578;28;20470;-76
2023/05/24 03:00:20;;;;;;;6.32;4.10;;;15.40;99.90;;;;;;5052547;28;20059;-73
2023/05/24 03:02:49;;;;;;;8.02;4.20;;;15.30;99.90;;;;;;5054257;28;20604;-74
2023/05/24 03:05:16;;;;;;;6.60;3.28;;;15.40;99.90;;;;;;5049498;28;20016;-74
2023/05/24 03:07:41;;;;;;;7.40;3.80;;;15.30;99.90;;;;;;5050932;28;20721;-74
2023/05/24 03:10:07;;;;;;;6.35;3.47;;;15.30;99.90;;;;;;5056699;28;20044;-74
2023/05/24 03:12:33;;;;;;;5.65;3.80;;;15.30;99.90;;;;;;5052387;28;20021;-74
2023/05/24 03:14:59;;;;;;;7.53;3.72;;;15.10;99.90;;;;;;5053013;28;20029;-74
2023/05/24 03:17:25;;;;;;;6.60;3.83;;;14.90;99.90;;;;;;5049589;28;20041;-74
2023/05/24 03:19:51;;;;;;;6.57;3.83;;;15.10;99.90;;;;;;5048314;28;20045;-74
2023/05/24 03:22:17;;;;;;;6.05;3.58;;;15.10;99.90;;;;;;5046205;28;20043;-74
2023/05/24 03:24:45;;;;;;;7.45;4.03;;;15.40;99.90;;;;;;5049211;28;20025;-73
2023/05/24 03:27:11;;;;;;;10.35;4.03;;;15.40;99.90;;;;;;5049364;28;20033;-73
2023/05/24 03:29:36;;;;;;;8.55;3.83;;;15.20;99.90;;;;;;5051223;28;20025;-73
2023/05/24 03:32:02;;;;;;;6.43;3.80;;;15.40;99.90;;;;;;5047282;28;20102;-73
2023/05/24 03:34:29;;;;;;;7.22;3.97;;;15.40;99.90;;;;;;5049847;28;20029;-73
2023/05/24 03:36:54;;;;;;;8.95;3.75;;;15.30;99.90;;;;;;5052366;28;20020;-73
2023/05/24 03:39:20;;;;;;;6.13;3.90;;;15.40;99.90;;;;;;5053226;28;20032;-73
2023/05/24 03:41:46;;;;;;;5.15;3.30;;;15.60;99.90;;;;;;5053284;28;20414;-73
2023/05/24 03:44:12;;;;;;;6.95;4.00;;;15.50;99.90;;;;;;5050048;28;20081;-74
2023/05/24 03:46:37;;;;;;;8.68;3.75;;;15.40;99.90;;;;;;5048416;28;20588;-73
2023/05/24 03:49:03;;;;;;;6.43;4.07;;;15.30;99.90;;;;;;5048087;28;20037;-73
2023/05/24 03:51:29;;;;;;;6.40;3.00;;;15.20;99.90;;;;;;5051330;28;20035;-74
2023/05/24 03:53:58;;;;;;;8.38;4.60;;;15.10;99.90;;;;;;5056923;28;20522;-73
2023/05/24 03:56:25;;;;;;;7.97;2.97;;;15.10;99.90;;;;;;5049722;28;20045;-74
2023/05/24 03:58:51;;;;;;;5.35;3.75;;;15.20;99.90;;;;;;5043032;28;20175;-73
2023/05/24 04:01:18;;;;;;;5.72;3.67;;;15.30;99.90;;;;;;5045655;28;20032;-74
2023/05/24 04:03:44;;;;;;;9.43;4.10;;;15.50;99.90;;;;;;5046939;28;20025;-74
2023/05/24 04:06:11;;;;;;;7.88;3.80;;;15.50;99.90;;;;;;5049289;28;20064;-74
2023/05/24 04:08:37;;;;;;;7.70;3.90;;;15.40;99.90;;;;;;5046763;28;20659;-74
2023/05/24 04:11:02;;;;;;;7.75;3.72;;;15.30;99.90;;;;;;5048427;28;20036;-74
2023/05/24 04:13:29;;;;;;;7.05;3.30;;;15.30;99.90;;;;;;5043482;28;20035;-74
2023/05/24 04:15:55;;;;;;;6.82;3.60;;;15.50;99.90;;;;;;5046194;28;20037;-73
2023/05/24 04:18:20;;;;;;;8.40;4.43;;;15.60;99.90;;;;;;5046409;28;20055;-74
2023/05/24 04:20:46;;;;;;;7.35;3.88;;;15.70;99.90;;;;;;5050974;28;20123;-74
2023/05/24 04:23:12;;;;;;;7.00;4.13;;;15.50;99.90;;;;;;5044980;28;20040;-74
2023/05/24 04:25:37;;;;;;;7.15;3.67;;;15.40;99.90;;;;;;5045179;28;20025;-74
2023/05/24 04:28:03;;;;;;;5.28;3.83;;;15.50;99.90;;;;;;5051136;28;20079;-74
2023/05/24 04:30:29;;;;;;;6.65;3.92;;;15.60;99.90;;;;;;5045378;28;20037;-74
2023/05/24 04:32:58;;;;;;;8.35;3.75;;;15.70;99.90;;;;;;5044900;28;20142;-74
2023/05/24 04:35:26;;;;;;;7.07;4.20;;;15.80;99.90;;;;;;5046645;28;20029;-74
2023/05/24 04:37:52;;;;;;;8.85;4.25;;;15.90;99.90;;;;;;5041960;28;20033;-74
2023/05/24 04:40:21;;;;;;;7.47;3.58;;;15.90;99.90;;;;;;5050152;28;20033;-74
2023/05/24 04:42:48;;;;;;;8.30;3.97;;;15.80;99.90;;;;;;5048589;28;20033;-74
2023/05/24 04:45:14;;;;;;;6.88;3.67;;;15.80;99.90;;;;;;5043231;28;20035;-74
2023/05/24 04:47:41;;;;;;;6.40;3.55;;;15.90;99.90;;;;;;5045245;28;20041;-75
2023/05/24 04:50:07;;;;;;;6.25;3.75;;;15.90;99.90;;;;;;5051968;28;20032;-75
2023/05/24 04:52:35;;;;;;;6.40;3.50;;;16.00;99.90;;;;;;5050062;28;20036;-76
2023/05/24 04:55:04;;;;;;;6.20;3.03;;;16.10;99.90;;;;;;5045841;28;20532;-76
2023/05/24 04:57:29;;;;;;;7.53;3.70;;;16.30;99.90;;;;;;5046439;28;20036;-76
2023/05/24 04:59:55;;;;;;;6.05;3.83;;;16.40;99.90;;;;;;5047610;28;20831;-76
2023/05/24 05:02:21;;;;;;;6.38;4.35;;;16.50;99.90;;;;;;5047265;28;20087;-76
2023/05/24 05:04:47;;;;;;;6.13;3.90;;;16.60;99.90;;;;;;5042944;28;20055;-76
2023/05/24 05:07:12;;;;;;;5.28;3.70;;;16.70;99.90;;;;;;5043763;28;20112;-76
2023/05/24 05:09:38;;;;;;;7.05;4.18;;;16.70;99.90;;;;;;5049714;28;20375;-75
2023/05/24 05:12:04;;;;;;;7.57;4.47;;;16.80;99.90;;;;;;5042024;28;20031;-75
2023/05/24 05:14:30;;;;;;;8.50;4.00;;;16.80;99.90;;;;;;5044612;28;20024;-76
2023/05/24 05:16:55;;;;;;;8.18;4.93;;;16.80;99.90;;;;;;5046105;28;20622;-75
2023/05/24 05:19:21;;;;;;;8.45;4.40;;;16.90;99.90;;;;;;5045274;28;20522;-75
2023/05/24 05:21:47;;;;;;;8.25;5.43;;;17.00;99.90;;;;;;5042765;28;20039;-76
2023/05/24 05:24:15;;;;;;;8.48;4.72;;;17.00;99.90;;;;;;5051373;28;20530;-75
2023/05/24 05:26:40;;;;;;;10.57;5.80;;;17.00;99.90;;;;;;5045094;28;20067;-75
2023/05/24 05:29:06;;;;;;;7.40;4.85;;;17.10;99.90;;;;;;5051376;28;20131;-75
2023/05/24 05:31:32;;;;;;;10.75;4.97;;;17.20;99.90;;;;;;5044367;28;20040;-75
2023/05/24 05:33:57;;;;;;;7.95;4.70;;;17.20;99.90;;;;;;5045878;28;20125;-76
2023/05/24 05:36:23;;;;;;;7.07;4.30;;;17.30;99.90;;;;;;5051070;28;20107;-75
2023/05/24 05:38:49;;;;;;;7.28;4.45;;;17.40;99.90;;;;;;5047315;28;20033;-76
2023/05/24 05:41:14;;;;;;;7.80;5.53;;;17.40;99.90;;;;;;5048040;28;20128;-76
2023/05/24 05:43:40;;;;;;;15.45;5.20;;;17.50;99.90;;;;;;5047199;28;20025;-76
2023/05/24 05:46:06;;;;;;;8.85;4.38;;;17.60;99.90;;;;;;5042166;28;20029;-76
2023/05/24 05:48:31;;;;;;;9.98;5.47;;;17.60;99.90;;;;;;5046856;28;20032;-76
2023/05/24 05:50:57;;;;;;;7.50;4.72;;;17.50;99.90;;;;;;5050692;28;20579;-75
2023/05/24 05:53:23;;;;;;;13.75;5.15;;;17.60;99.90;;;;;;5044395;28;20029;-75
2023/05/24 05:55:49;;;;;;;10.23;5.15;;;17.50;99.90;;;;;;5045436;28;20128;-75
2023/05/24 05:58:15;;;;;;;7.22;4.82;;;17.30;99.90;;;;;;5053096;28;20124;-75
2023/05/24 06:00:41;;;;;;;7.93;5.32;;;17.30;99.90;;;;;;5049650;28;20124;-75
2023/05/24 06:03:06;;;;;;;10.10;5.50;;;17.30;99.90;;;;;;5046963;28;20036;-75
2023/05/24 06:05:32;;;;;;;8.00;5.15;;;17.20;99.90;;;;;;5055804;28;20642;-75
2023/05/24 06:07:58;;;;;;;10.90;5.07;;;17.40;99.90;;;;;;5050261;28;20037;-76
2023/05/24 06:10:23;;;;;;;11.02;5.38;;;17.60;99.90;;;;;;5048664;28;20040;-76
2023/05/24 06:12:49;;;;;;;11.77;4.90;;;17.60;99.90;;;;;;5048159;28;20025;-76
2023/05/24 06:15:15;;;;;;;7.90;4.70;;;17.70;99.90;;;;;;5045860;28;20363;-76
2023/05/24 06:17:42;;;;;;;7.78;4.65;;;17.70;99.90;;;;;;5048107;28;20379;-76
2023/05/24 06:20:10;;;;;;;7.82;5.68;;;17.80;99.90;;;;;;5050124;28;20503;-76
2023/05/24 06:22:37;;;;;;;9.65;4.75;;;18.00;99.90;;;;;;5044836;28;20166;-76
2023/05/24 06:25:04;;;;;;;6.40;4.30;;;18.30;99.90;;;;;;5051874;28;20029;-77
2023/05/24 06:27:30;;;;;;;6.65;3.92;;;18.30;99.90;;;;;;5047689;28;20025;-77
2023/05/24 06:29:55;;;;;;;7.03;3.72;;;18.20;99.90;;;;;;5046882;28;20403;-76
2023/05/24 06:32:21;;;;;;;8.13;4.28;;;18.40;99.90;;;;;;5046579;28;20159;-76
2023/05/24 06:34:46;;;;;;;6.75;3.78;;;18.40;99.90;;;;;;5050485;28;20065;-75
2023/05/24 06:37:14;;;;;;;10.43;5.38;;;18.50;99.90;;;;;;5057661;28;20036;-76
2023/05/24 06:39:40;;;;;;;5.97;4.00;;;18.50;99.90;;;;;;5048538;28;20418;-77
2023/05/24 06:42:05;;;;;;;6.30;3.83;;;18.50;99.90;;;;;;5056458;28;20054;-80
2023/05/24 06:44:33;;;;;;;9.95;4.45;;;18.50;99.90;;;;;;5052832;28;20029;-77
2023/05/24 06:47:00;;;;;;;14.10;4.25;;;18.50;99.90;;;;;;5054424;28;20036;-76
2023/05/24 06:49:26;;;;;;;7.53;5.20;;;18.60;99.90;;;;;;5053578;28;20021;-75
2023/05/24 06:51:52;;;;;;;13.05;4.72;;;18.50;99.90;;;;;;5051171;28;20372;-76
2023/05/24 06:54:18;;;;;;;8.05;4.45;;;18.60;99.90;;;;;;5060089;28;20032;-76
2023/05/24 06:56:44;;;;;;;8.85;4.80;;;18.70;99.90;;;;;;5053564;28;20113;-76
2023/05/24 06:59:09;;;;;;;8.45;3.90;;;18.80;99.90;;;;;;5044989;28;20025;-76
2023/05/24 07:01:38;;;;;;;6.97;4.07;;;18.70;99.90;;;;;;5051906;28;20031;-76
2023/05/24 07:04:05;;;;;;;8.20;4.97;;;18.70;99.90;;;;;;5046605;28;20033;-76
2023/05/24 07:06:33;;;;;;;9.20;4.90;;;18.60;99.90;;;;;;5046604;28;20025;-76
2023/05/24 07:09:00;;;;;;;6.85;4.40;;;18.50;99.90;;;;;;5050747;28;20036;-76
2023/05/24 07:11:27;;;;;;;7.47;4.00;;;18.60;99.90;;;;;;5044993;28;20375;-77
2023/05/24 07:13:52;;;;;;;7.03;4.55;;;18.60;99.90;;;;;;5046147;28;20033;-77
2023/05/24 07:16:18;;;;;;;11.25;5.50;;;18.60;99.90;;;;;;5050398;28;20094;-76
2023/05/24 07:18:44;;;;;;;7.82;4.85;;;18.60;99.90;;;;;;5053843;28;20067;-77
2023/05/24 07:21:09;;;;;;;9.98;5.07;;;18.60;99.90;;;;;;5054205;28;20148;-76
2023/05/24 07:23:36;;;;;;;11.07;4.38;;;18.50;99.90;;;;;;5048786;28;20037;-76
2023/05/24 07:26:03;;;;;;;6.82;4.38;;;18.60;99.90;;;;;;5048649;28;20025;-76
2023/05/24 07:28:29;;;;;;;17.75;5.63;;;19.00;99.90;;;;;;5047181;28;26035;-77
2023/05/24 07:30:55;;;;;;;9.43;4.95;;;19.90;99.90;;;;;;5053748;28;20024;-77
2023/05/24 07:33:21;;;;;;;6.82;4.72;;;20.40;99.90;;;;;;5047284;28;20098;-77
2023/05/24 07:35:50;;;;;;;8.63;4.32;;;20.30;99.90;;;;;;5054185;28;20476;-76
2023/05/24 07:38:17;;;;;;;10.02;4.97;;;20.90;99.90;;;;;;5053692;28;20024;-78
2023/05/24 07:40:43;;;;;;;7.30;4.53;;;21.00;99.90;;;;;;5043023;28;20044;-77
2023/05/24 07:43:08;;;;;;;7.30;4.15;;;21.30;99.90;;;;;;5054543;28;20029;-76
2023/05/24 07:45:34;;;;;;;11.20;4.82;;;21.20;99.90;;;;;;5052778;28;20040;-76
2023/05/24 07:48:00;;;;;;;9.02;5.20;;;21.50;99.90;;;;;;5051697;28;20024;-76
2023/05/24 07:50:26;;;;;;;5.90;3.88;;;22.60;99.90;;;;;;5055381;28;20036;-77
2023/05/24 07:52:52;;;;;;;18.73;5.10;;;23.20;99.90;;;;;;5054028;28;20036;-76
2023/05/24 07:55:18;;;;;;;6.63;3.50;;;24.30;98.80;;;;;;5057461;28;20049;-77
2023/05/24 07:57:44;;;;;;;17.98;5.03;;;23.70;98.40;;;;;;5057102;28;20580;-77
2023/05/24 08:00:13;;;;;;;7.25;3.42;;;22.60;99.80;;;;;;5059350;28;20068;-77
2023/05/24 08:02:42;;;;;;;8.40;4.38;;;22.00;99.90;;;;;;5060495;28;20029;-77
2023/05/24 08:05:11;;;;;;;8.88;4.70;;;21.30;99.90;;;;;;5059337;28;20056;-77
2023/05/24 08:07:37;;;;;;;7.03;4.18;;;21.20;99.90;;;;;;5055842;28;20104;-77
2023/05/24 08:10:03;;;;;;;9.07;5.35;;;21.20;99.90;;;;;;5055408;28;20554;-77
2023/05/24 08:12:29;;;;;;;10.05;4.70;;;20.90;99.90;;;;;;5057872;28;20033;-77
2023/05/24 08:14:55;;;;;;;7.00;4.40;;;20.90;99.90;;;;;;5053162;28;20602;-77
2023/05/24 08:17:21;;;;;;;9.18;4.03;;;21.20;99.90;;;;;;5058798;28;20036;-77
2023/05/24 08:19:47;;;;;;;9.15;4.75;;;21.30;99.90;;;;;;5053337;28;20029;-76
2023/05/24 08:22:12;;;;;;;8.07;4.40;;;21.50;99.90;;;;;;5058862;28;20051;-76
2023/05/24 08:24:38;;;;;;;7.50;4.00;;;21.50;99.90;;;;;;5062908;28;20029;-77
2023/05/24 08:27:04;;;;;;;7.50;4.68;;;21.50;99.90;;;;;;5057591;28;20172;-77
2023/05/24 08:29:30;;;;;;;6.03;4.07;;;21.40;99.90;;;;;;5059685;28;20467;-77
2023/05/24 08:31:55;;;;;;;5.97;4.10;;;21.40;99.90;;;;;;5064012;28;20032;-76
2023/05/24 08:34:21;;;;;;;8.15;3.92;;;21.20;99.90;;;;;;5054825;28;20033;-77
2023/05/24 08:36:47;;;;;;;8.02;4.10;;;21.50;99.90;;;;;;5058094;28;20020;-77
2023/05/24 08:39:13;;;;;;;7.03;4.50;;;21.90;99.90;;;;;;5054733;28;20032;-77
2023/05/24 08:41:40;;;;;;;9.13;4.10;;;22.10;99.90;;;;;;5053268;28;20033;-76
2023/05/24 08:44:06;;;;;;;6.65;4.15;;;22.20;99.90;;;;;;5055058;28;20826;-77
2023/05/24 08:46:35;;;;;;;7.90;4.82;;;22.40;99.90;;;;;;5057317;28;20024;-77
2023/05/24 08:49:02;;;;;;;8.90;3.53;;;21.90;99.90;;;;;;5055613;28;20029;-77
2023/05/24 08:51:29;;;;;;;7.30;3.90;;;22.20;99.90;;;;;;5056624;28;20036;-77
2023/05/24 08:53:59;;;;;;;7.60;4.00;;;22.30;99.90;;;;;;5059844;28;20028;-77
2023/05/24 08:56:26;;;;;;;7.40;4.25;;;22.50;99.90;;;;;;5064642;28;20053;-77
2023/05/24 08:58:54;;;;;;;6.28;3.53;;;22.50;99.90;;;;;;5067010;28;20650;-77
2023/05/24 09:01:21;;;;;;;6.07;3.75;;;22.70;99.90;;;;;;5065642;28;20044;-77
2023/05/24 09:03:50;;;;;;;6.65;3.50;;;22.40;99.90;;;;;;5066655;28;20053;-77
2023/05/24 09:06:17;;;;;;;6.95;3.92;;;22.50;99.90;;;;;;5066677;28;20029;-77
2023/05/24 09:08:44;;;;;;;7.38;3.85;;;22.50;99.90;;;;;;5067539;28;20363;-77
2023/05/24 09:11:10;;;;;;;8.07;4.25;;;22.50;99.90;;;;;;5065051;28;20153;-77
2023/05/24 09:13:36;;;;;;;7.50;3.75;;;23.10;99.90;;;;;;5067648;28;20039;-77
2023/05/24 09:16:02;;;;;;;8.10;4.57;;;23.20;99.90;;;;;;5066052;28;20138;-77
2023/05/24 09:18:28;;;;;;;5.80;3.75;;;23.00;99.90;;;;;;5066721;28;20025;-77
2023/05/24 09:20:54;;;;;;;5.18;3.67;;;22.80;99.90;;;;;;5067717;28;20064;-77
2023/05/24 09:23:21;;;;;;;5.07;3.35;;;23.00;99.90;;;;;;5066617;28;20548;-77
2023/05/24 09:25:47;;;;;;;6.03;3.78;;;23.00;99.70;;;;;;5065743;28;20028;-77
2023/05/24 09:28:16;;;;;;;6.50;3.00;;;22.90;99.90;;;;;;5067155;28;20493;-77
2023/05/24 09:30:56;;;;;;;6.28;3.67;;;23.00;99.30;;;;;;5066071;28;20051;-77
2023/05/24 09:33:22;;;;;;;9.93;4.22;;;23.30;99.90;;;;;;5066984;28;20070;-77
2023/05/24 09:35:48;;;;;;;6.47;4.13;;;23.20;99.10;;;;;;5065875;28;20038;-79
2023/05/24 09:38:17;;;;;;;6.78;3.80;;;23.60;99.80;;;;;;5063725;28;20445;-77
2023/05/24 09:40:44;;;;;;;8.38;4.30;;;23.80;98.40;;;;;;5065076;28;20068;-77
2023/05/24 09:43:10;;;;;;;10.52;3.75;;;23.80;98.40;;;;;;5066232;28;20094;-77
2023/05/24 09:45:45;;;;;;;7.47;3.92;;;24.00;98.50;;;;;;5064087;28;20040;-76
2023/05/24 09:48:12;;;;;;;5.82;3.85;;;23.80;98.60;;;;;;5063747;28;20462;-76
2023/05/24 09:50:38;;;;;;;7.10;3.65;;;24.20;99.60;;;;;;5062959;28;20500;-76
2023/05/24 09:53:05;;;;;;;6.65;4.03;;;24.50;99.20;;;;;;5066360;28;20028;-76
2023/05/24 09:55:35;;;;;;;7.50;3.95;;;24.30;98.50;;;;;;5060733;28;20052;-76
2023/05/24 09:58:03;;;;;;;6.63;3.55;;;24.40;98.90;;;;;;5051975;28;20032;-76
2023/05/24 10:00:32;;;;;;;7.45;3.60;;;24.40;98.80;;;;;;5053654;28;20144;-77
2023/05/24 10:03:02;;;;;;;6.50;3.58;;;24.60;98.60;;;;;;5053366;28;20380;-77
2023/05/24 10:05:29;;;;;;;7.45;4.40;;;24.70;98.40;;;;;;5056369;28;20112;-77
2023/05/24 10:07:58;;;;;;;6.93;4.90;;;24.60;97.60;;;;;;5054969;28;20388;-77
2023/05/24 10:10:28;;;;;;;6.00;3.78;;;24.60;98.80;;;;;;5059024;28;20028;-77
2023/05/24 10:12:58;;;;;;;8.82;4.15;;;24.70;98.90;;;;;;5053634;28;20444;-77
2023/05/24 10:15:25;;;;;;;6.30;3.67;;;25.30;98.50;;;;;;5053905;28;20040;-77
2023/05/24 10:17:58;;;;;;;7.32;3.60;;;25.30;97.60;;;;;;5052156;28;20025;-77
2023/05/24 10:20:24;;;;;;;6.95;3.65;;;25.10;97.90;;;;;;5054977;28;20511;-77
2023/05/24 10:22:52;;;;;;;6.72;4.10;;;24.80;98.30;;;;;;5051272;28;20094;-77
2023/05/24 10:25:26;;;;;;;8.75;4.20;;;24.30;98.20;;;;;;5058713;28;20367;-77
2023/05/24 10:27:56;;;;;;;10.57;4.25;;;24.40;98.00;;;;;;5062437;28;20024;-77
2023/05/24 10:30:57;;;;;;;7.03;3.88;;;24.20;97.90;;;;;;5047379;28;20029;-77
2023/05/24 10:33:23;;;;;;;5.72;3.67;;;24.30;98.90;;;;;;5046070;28;20049;-77
2023/05/24 10:35:50;;;;;;;6.80;4.15;;;24.70;98.60;;;;;;5061895;28;20040;-77
2023/05/24 10:38:19;;;;;;;8.07;4.18;;;24.80;98.00;;;;;;5067468;28;20047;-77
2023/05/24 10:40:45;;;;;;;7.07;4.28;;;24.90;98.10;;;;;;5057621;28;20545;-76
2023/05/24 10:43:10;;;;;;;6.45;3.83;;;24.90;97.70;;;;;;5061669;28;20057;-76
2023/05/24 10:45:40;;;;;;;5.10;3.40;;;24.50;98.00;;;;;;5064686;28;20032;-77
2023/05/24 10:48:12;;;;;;;6.88;4.20;;;23.90;98.30;;;;;;5066094;28;20031;-75
2023/05/24 10:50:38;;;;;;;8.15;4.15;;;23.70;98.70;;;;;;5066738;28;20037;-74
2023/05/24 10:53:12;;;;;;;6.38;3.47;;;23.40;98.60;;;;;;5066767;28;20501;-74
2023/05/24 10:55:58;;;;;;;5.03;4.10;;;23.20;98.80;;;;;;5065751;28;20141;-77
2023/05/24 10:58:44;;;;;;;5.93;3.85;;;23.10;99.40;;;;;;5062880;28;20025;-78
2023/05/24 11:01:25;;;;;;;7.45;4.25;;;23.00;99.90;;;;;;5067578;28;20036;-77
2023/05/24 11:03:51;;;;;;;7.30;4.60;;;22.90;99.90;;;;;;5058396;28;20630;-78
2023/05/24 11:06:18;;;;;;;8.77;4.50;;;22.80;99.90;;;;;;5062447;28;20040;-78
2023/05/24 11:08:45;;;;;;;10.60;4.50;;;22.50;99.50;;;;;;5063439;28;20457;-78
2023/05/24 11:11:13;;;;;;;8.32;4.65;;;22.30;99.20;;;;;;5065036;28;20022;-79
2023/05/24 11:13:39;;;;;;;8.27;4.28;;;22.30;99.40;;;;;;5065544;28;20036;-79
2023/05/24 11:16:06;;;;;;;8.45;4.07;;;22.40;99.40;;;;;;5065281;28;20786;-79
2023/05/24 11:18:37;;;;;;;9.52;5.55;;;22.40;99.70;;;;;;5064017;28;20028;-78
2023/05/24 11:21:04;;;;;;;8.52;4.80;;;22.20;99.40;;;;;;5064983;28;20130;-78
2023/05/24 11:23:30;;;;;;;8.38;4.25;;;22.00;99.90;;;;;;5065442;28;20035;-77
2023/05/24 11:25:57;;;;;;;8.68;4.60;;;21.60;99.90;;;;;;5065924;28;20036;-79
2023/05/24 11:28:23;;;;;;;6.97;4.35;;;21.40;99.50;;;;;;5065607;28;20040;-78
2023/05/24 11:30:49;;;;;;;6.18;3.90;;;21.20;99.20;;;;;;5065598;28;20468;-75
2023/05/24 11:33:22;;;;;;;12.10;4.35;;;21.00;97.40;;;;;;5066294;28;20498;-76
2023/05/24 11:35:53;;;;;;;25.85;5.35;;;20.80;97.40;;;;;;5063912;28;20032;-76
2023/05/24 11:38:20;;;;;;;20.10;5.38;;;20.40;98.80;;;;;;5065938;28;20041;-76
2023/05/24 11:40:48;;;;;;;13.90;4.93;;;19.60;99.90;;;;;;5054949;28;20036;-75
2023/05/24 11:43:16;;;;;;;7.35;4.38;;;19.20;99.90;;;;;;5066174;28;20027;-75
2023/05/24 11:45:45;;;;;;;11.32;4.85;;;18.80;99.90;;;;;;5064046;28;20036;-75
2023/05/24 11:48:11;;;;;;;11.68;5.88;;;18.30;99.90;;;;;;5063357;28;20021;-76
2023/05/24 11:50:44;;;;;;;9.82;4.38;;;18.10;99.90;;;;;;5064698;28;20138;-76
2023/05/24 11:53:14;;;;;;;5.30;3.35;;;17.90;99.90;;;;;;5065893;28;20028;-77
2023/05/24 11:55:41;;;;;;;11.38;5.22;;;18.20;99.90;;;;;;5064339;28;20098;-76
2023/05/24 11:58:15;;;;;;;14.23;5.55;;;17.90;99.90;;;;;;5064270;28;20102;-80
2023/05/24 12:00:47;;;;;;;20.65;8.27;;;18.00;99.90;;;;;;5057313;28;20148;-78
2023/05/24 12:03:13;;;;;;;14.35;6.50;;;18.20;99.90;;;;;;5053004;28;20082;-78
2023/05/24 12:05:39;;;;;;;20.02;6.65;;;17.70;99.90;;;;;;5052249;28;20032;-77
2023/05/24 12:08:06;;;;;;;24.75;9.18;;;17.70;99.90;;;;;;5052512;28;20016;-77
2023/05/24 12:10:36;;;;;;;13.35;6.75;;;17.60;99.90;;;;;;5044566;28;20036;-79
2023/05/24 12:13:02;;;;;;;18.92;6.60;;;16.90;99.90;;;;;;5052574;28;20737;-77
2023/05/24 12:15:29;;;;;;;17.67;7.10;;;16.10;99.90;;;;;;5054325;28;20095;-78
2023/05/24 12:17:55;;;;;;;23.25;9.48;;;15.90;99.90;;;;;;5051310;28;20394;-77
2023/05/24 12:20:22;;;;;;;19.80;8.32;;;16.00;99.90;;;;;;5053415;28;20041;-77
2023/05/24 12:22:50;;;;;;;15.70;7.95;;;16.20;99.90;;;;;;5051488;28;20044;-78
2023/05/24 12:25:19;;;;;;;15.25;8.95;;;16.60;99.90;;;;;;5050143;28;20032;-78
2023/05/24 12:27:55;;;;;;;21.58;9.20;;;16.60;99.90;;;;;;5052677;28;20032;-78
2023/05/24 12:30:22;;;;;;;16.95;8.98;;;16.60;99.90;;;;;;5050077;28;20029;-78
2023/05/24 12:32:49;;;;;;;20.92;9.73;;;16.30;99.90;;;;;;5055110;28;20039;-78
2023/05/24 12:35:17;;;;;;;17.95;7.80;;;16.40;99.90;;;;;;5050842;28;21243;-78
2023/05/24 12:37:44;;;;;;;15.20;7.45;;;16.40;99.90;;;;;;5047570;28;20487;-78
2023/05/24 12:40:20;;;;;;;18.92;7.50;;;16.30;99.90;;;;;;5052067;28;20045;-78
2023/05/24 12:42:57;;;;;;;15.30;7.47;;;16.30;99.90;;;;;;5044628;28;20048;-78
2023/05/24 12:45:24;;;;;;;13.07;6.70;;;16.20;99.90;;;;;;5046386;28;20032;-78
2023/05/24 12:48:01;;;;;;;18.33;7.13;;;16.10;99.90;;;;;;5048657;28;20599;-78